createdAt,value
2022-11-23T00:00:43.551Z,21.90
2022-11-23T00:03:15.207Z,21.97
2022-11-23T00:05:43.098Z,21.63
2022-11-23T00:08:12.139Z,21.23
2022-11-23T00:10:39.841Z,21.67
2022-11-23T00:13:07.550Z,22.37
2022-11-23T00:15:35.518Z,21.63
2022-11-23T00:18:03.552Z,25.00
2022-11-23T00:20:31.260Z,22.83
2022-11-23T00:22:59.026Z,22.60
2022-11-23T00:25:28.044Z,22.57
2022-11-23T00:27:55.743Z,24.40
2022-11-23T00:30:23.439Z,22.90
2022-11-23T00:32:51.148Z,24.37
2022-11-23T00:35:18.824Z,22.23
2022-11-23T00:37:46.515Z,24.17
2022-11-23T00:40:14.242Z,26.47
2022-11-23T00:42:43.263Z,23.93
2022-11-23T00:45:11.758Z,23.93
2022-11-23T00:47:39.516Z,22.97
2022-11-23T00:50:07.783Z,23.37
2022-11-23T00:52:35.478Z,22.53
2022-11-23T00:55:03.146Z,23.30
2022-11-23T00:57:30.853Z,23.70
2022-11-23T00:59:59.873Z,23.90
2022-11-23T01:02:27.963Z,23.30
2022-11-23T01:04:55.658Z,22.97
2022-11-23T01:07:23.385Z,24.13
2022-11-23T01:09:51.069Z,21.77
2022-11-23T01:12:18.782Z,22.70
2022-11-23T01:14:46.495Z,21.73
2022-11-23T01:17:15.536Z,21.97
2022-11-23T01:19:43.235Z,22.70
2022-11-23T01:22:10.973Z,22.40
2022-11-23T01:24:38.679Z,23.10
2022-11-23T01:27:06.384Z,23.77
2022-11-23T01:29:34.642Z,23.50
2022-11-23T01:32:02.590Z,21.10
2022-11-23T01:34:31.608Z,21.50
2022-11-23T01:36:59.476Z,22.93
2022-11-23T01:39:27.204Z,22.70
2022-11-23T01:41:54.901Z,22.00
2022-11-23T01:44:25.643Z,22.00
2022-11-23T01:46:53.326Z,20.40
2022-11-23T01:49:21.715Z,21.03
2022-11-23T01:51:53.194Z,20.10
2022-11-23T01:54:25.727Z,20.37
2022-11-23T01:56:56.488Z,22.43
2022-11-23T01:59:26.404Z,21.43
2022-11-23T02:01:54.182Z,20.57
2022-11-23T02:04:25.133Z,19.30
2022-11-23T02:06:55.664Z,19.90
2022-11-23T02:09:24.070Z,19.23
2022-11-23T02:11:52.880Z,21.23
2022-11-23T02:14:23.577Z,20.03
2022-11-23T02:16:51.645Z,19.83
2022-11-23T02:19:32.701Z,19.03
2022-11-23T02:22:02.119Z,19.93
2022-11-23T02:24:35.151Z,20.80
2022-11-23T02:27:06.903Z,20.83
2022-11-23T02:29:35.654Z,19.37
2022-11-23T02:32:03.382Z,20.43
2022-11-23T02:34:31.095Z,21.97
2022-11-23T02:36:59.351Z,23.13
2022-11-23T02:39:32.493Z,22.00
2022-11-23T02:42:01.216Z,20.27
2022-11-23T02:44:37.579Z,19.57
2022-11-23T02:47:06.082Z,19.83
2022-11-23T02:49:34.148Z,19.67
2022-11-23T02:52:02.603Z,20.60
2022-11-23T02:54:30.342Z,19.07
2022-11-23T02:56:58.369Z,21.03
2022-11-23T02:59:26.184Z,20.07
2022-11-23T03:01:55.238Z,21.63
2022-11-23T03:04:27.649Z,20.53
2022-11-23T03:06:56.145Z,20.33
2022-11-23T03:09:26.064Z,20.30
2022-11-23T03:11:53.994Z,20.60
2022-11-23T03:14:21.940Z,20.40
2022-11-23T03:16:49.798Z,21.00
2022-11-23T03:19:18.875Z,20.20
2022-11-23T03:21:46.576Z,20.00
2022-11-23T03:24:14.294Z,20.10
2022-11-23T03:26:42.004Z,19.20
2022-11-23T03:29:09.834Z,19.00
2022-11-23T03:31:37.558Z,17.70
2022-11-23T03:34:05.288Z,19.03
2022-11-23T03:36:34.319Z,17.43
2022-11-23T03:39:02.155Z,16.37
2022-11-23T03:41:29.847Z,16.60
2022-11-23T03:43:57.555Z,16.53
2022-11-23T03:46:25.416Z,17.80
2022-11-23T03:48:53.130Z,18.50
2022-11-23T03:51:20.868Z,16.77
2022-11-23T03:53:49.911Z,17.13
2022-11-23T03:56:17.619Z,17.30
2022-11-23T03:58:45.322Z,18.20
2022-11-23T04:01:13.184Z,19.83
2022-11-23T04:03:40.976Z,20.30
2022-11-23T04:06:08.696Z,20.60
2022-11-23T04:08:36.525Z,20.40
2022-11-23T04:11:05.602Z,21.57
2022-11-23T04:13:33.326Z,21.07
2022-11-23T04:16:01.047Z,28.85
2022-11-23T04:18:28.766Z,23.03
2022-11-23T04:20:56.496Z,24.57
2022-11-23T04:23:24.220Z,22.43
2022-11-23T04:25:51.951Z,22.70
2022-11-23T04:28:21.022Z,23.43
2022-11-23T04:30:48.864Z,20.43
2022-11-23T04:33:16.742Z,18.87
2022-11-23T04:35:44.471Z,19.53
2022-11-23T04:38:12.287Z,18.67
2022-11-23T04:40:39.969Z,17.77
2022-11-23T04:43:09.542Z,18.30
2022-11-23T04:45:41.024Z,18.33
2022-11-23T04:48:09.046Z,18.20
2022-11-23T04:50:40.431Z,19.20
2022-11-23T04:53:08.787Z,19.53
2022-11-23T04:55:36.692Z,21.23
2022-11-23T04:58:04.508Z,21.03
2022-11-23T05:00:32.334Z,21.40
2022-11-23T05:03:02.336Z,21.53
2022-11-23T05:05:30.222Z,19.63
2022-11-23T05:07:58.877Z,21.53
2022-11-23T05:10:26.705Z,20.87
2022-11-23T05:12:54.397Z,20.63
2022-11-23T05:15:22.133Z,20.43
2022-11-23T05:17:49.921Z,19.77
2022-11-23T05:20:19.315Z,19.37
2022-11-23T05:22:47.031Z,19.13
2022-11-23T05:25:14.730Z,19.30
2022-11-23T05:27:42.439Z,21.07
2022-11-23T05:30:11.072Z,19.93
2022-11-23T05:32:38.758Z,18.40
2022-11-23T05:35:07.524Z,19.50
2022-11-23T05:37:36.728Z,17.60
2022-11-23T05:40:05.466Z,19.00
2022-11-23T05:42:33.591Z,17.10
2022-11-23T05:45:01.320Z,18.10
2022-11-23T05:47:29.014Z,18.10
2022-11-23T05:49:56.965Z,17.83
2022-11-23T05:52:25.998Z,18.30
2022-11-23T05:54:55.166Z,18.73
2022-11-23T05:57:22.990Z,17.50
2022-11-23T05:59:50.903Z,18.43
2022-11-23T06:02:18.630Z,17.77
2022-11-23T06:04:46.356Z,18.23
2022-11-23T06:07:14.229Z,16.47
2022-11-23T06:09:41.975Z,16.93
2022-11-23T06:12:11.041Z,18.03
2022-11-23T06:14:38.833Z,17.23
2022-11-23T06:17:06.643Z,17.77
2022-11-23T06:19:34.999Z,19.07
2022-11-23T06:22:03.114Z,17.53
2022-11-23T06:24:30.851Z,18.17
2022-11-23T06:26:58.527Z,20.13
2022-11-23T06:29:27.549Z,20.13
2022-11-23T06:31:55.275Z,18.90
2022-11-23T06:34:23.016Z,19.03
2022-11-23T06:36:50.734Z,20.00
2022-11-23T06:39:18.662Z,18.97
2022-11-23T06:41:46.367Z,19.93
2022-11-23T06:44:14.139Z,20.30
2022-11-23T06:46:43.184Z,20.00
2022-11-23T06:49:10.929Z,19.60
2022-11-23T06:51:38.710Z,17.97
2022-11-23T06:54:06.484Z,19.27
2022-11-23T06:56:34.182Z,18.60
2022-11-23T06:59:01.871Z,18.87
2022-11-23T07:01:29.604Z,17.63
2022-11-23T07:03:58.708Z,19.20
2022-11-23T07:06:26.547Z,18.50
2022-11-23T07:08:55.720Z,17.40
2022-11-23T07:11:23.422Z,16.90
2022-11-23T07:13:51.131Z,17.83
2022-11-23T07:16:18.851Z,17.13
2022-11-23T07:18:46.587Z,16.93
2022-11-23T07:21:15.590Z,16.43
2022-11-23T07:23:43.502Z,18.57
2022-11-23T07:26:11.248Z,16.70
2022-11-23T07:28:38.982Z,17.37
2022-11-23T07:31:07.126Z,20.43
2022-11-23T07:33:34.984Z,19.50
2022-11-23T07:36:03.402Z,18.70
2022-11-23T07:38:32.447Z,21.10
2022-11-23T07:41:01.715Z,22.83
2022-11-23T07:43:29.414Z,27.27
2022-11-23T07:45:57.483Z,27.37
2022-11-23T07:48:25.484Z,26.47
2022-11-23T07:50:54.009Z,26.30
2022-11-23T07:53:23.047Z,25.43
2022-11-23T07:55:56.720Z,25.70
2022-11-23T07:58:24.546Z,24.07
2022-11-23T08:00:52.287Z,23.70
2022-11-23T08:03:27.751Z,25.07
2022-11-23T08:05:56.435Z,26.20
2022-11-23T08:08:24.177Z,24.93
2022-11-23T08:10:54.458Z,23.17
2022-11-23T08:13:23.246Z,23.47
2022-11-23T08:15:55.441Z,21.97
2022-11-23T08:18:23.949Z,21.93
2022-11-23T08:20:51.772Z,22.97
2022-11-23T08:23:19.725Z,23.17
2022-11-23T08:25:47.889Z,22.13
2022-11-23T08:28:16.922Z,22.53
2022-11-23T08:30:45.072Z,20.70
2022-11-23T08:33:14.422Z,20.60
2022-11-23T08:35:43.057Z,20.60
2022-11-23T08:38:11.887Z,20.63
2022-11-23T08:40:40.023Z,20.70
2022-11-23T08:43:07.835Z,20.33
2022-11-23T08:45:36.911Z,22.47
2022-11-23T08:48:05.472Z,21.70
2022-11-23T08:50:34.420Z,21.50
2022-11-23T08:53:02.384Z,21.30
2022-11-23T08:55:30.371Z,21.77
2022-11-23T08:57:59.162Z,22.40
2022-11-23T09:00:27.985Z,19.97
2022-11-23T09:02:58.924Z,19.77
2022-11-23T09:05:26.811Z,19.67
2022-11-23T09:07:54.528Z,18.47
2022-11-23T09:10:22.518Z,19.43
2022-11-23T09:12:50.472Z,19.17
2022-11-23T09:15:18.612Z,19.23
2022-11-23T09:17:46.461Z,19.30
2022-11-23T09:20:15.824Z,17.63
2022-11-23T09:22:43.794Z,20.03
2022-11-23T09:25:12.151Z,20.13
2022-11-23T09:27:39.856Z,19.77
2022-11-23T09:30:08.782Z,20.17
2022-11-23T09:32:36.508Z,20.33
2022-11-23T09:35:04.717Z,19.50
2022-11-23T09:37:33.739Z,18.60
2022-11-23T09:40:01.584Z,18.80
2022-11-23T09:42:45.886Z,18.13
2022-11-23T09:45:23.684Z,17.50
2022-11-23T09:48:06.624Z,13.37
2022-11-23T09:50:43.445Z,12.37
2022-11-23T09:53:17.050Z,11.77
2022-11-23T09:55:47.292Z,12.97
2022-11-23T09:58:17.079Z,11.70
2022-11-23T10:00:48.423Z,11.83
2022-11-23T10:03:18.872Z,10.47
2022-11-23T10:05:56.021Z,11.47
2022-11-23T10:08:35.639Z,10.67
2022-11-23T10:11:24.636Z,10.60
2022-11-23T10:14:00.915Z,9.77
2022-11-23T10:16:37.607Z,10.20
2022-11-23T10:19:13.591Z,10.83
2022-11-23T10:21:52.543Z,9.77
2022-11-23T10:24:28.481Z,10.03
2022-11-23T10:26:56.202Z,10.20
2022-11-23T10:29:30.462Z,10.43
2022-11-23T10:31:59.049Z,10.10
2022-11-23T10:34:49.591Z,9.77
2022-11-23T10:37:19.014Z,9.50
2022-11-23T10:39:48.036Z,9.77
2022-11-23T10:42:22.262Z,10.33
2022-11-23T10:44:52.298Z,9.63
2022-11-23T10:47:40.942Z,10.50
2022-11-23T10:50:29.880Z,9.17
2022-11-23T10:52:59.024Z,9.87
2022-11-23T10:55:31.096Z,9.63
2022-11-23T10:57:59.558Z,10.00
2022-11-23T11:00:31.186Z,9.73
2022-11-23T11:03:00.282Z,9.90
2022-11-23T11:06:08.036Z,8.47
2022-11-23T11:08:22.551Z,8.83
2022-11-23T11:10:59.210Z,11.17
2022-11-23T11:13:30.527Z,9.33
2022-11-23T11:16:01.231Z,9.07
2022-11-23T11:18:32.072Z,8.60
2022-11-23T11:21:03.618Z,9.23
2022-11-23T11:23:32.451Z,11.40
2022-11-23T11:26:07.852Z,11.30
2022-11-23T11:28:39.137Z,18.90
2022-11-23T11:31:31.149Z,20.93
2022-11-23T11:34:05.513Z,7.50
2022-11-23T11:36:39.052Z,8.13
2022-11-23T11:39:18.638Z,7.77
2022-11-23T11:41:50.019Z,7.60
2022-11-23T11:44:22.511Z,9.37
2022-11-23T11:46:55.372Z,8.17
2022-11-23T11:49:27.197Z,8.50
2022-11-23T11:51:59.330Z,8.90
2022-11-23T11:54:32.498Z,7.97
2022-11-23T11:57:08.104Z,8.33
2022-11-23T11:59:42.956Z,8.23
2022-11-23T12:02:20.933Z,8.40
2022-11-23T12:05:00.938Z,9.33
2022-11-23T12:07:32.554Z,9.33
2022-11-23T12:10:07.710Z,9.90
2022-11-23T12:12:37.757Z,8.20
2022-11-23T12:15:20.495Z,9.13
2022-11-23T12:18:16.892Z,11.90
2022-11-23T12:20:53.144Z,15.07
2022-11-23T12:23:32.843Z,12.13
2022-11-23T12:26:13.569Z,9.83
2022-11-23T12:29:02.604Z,12.27
2022-11-23T12:31:40.641Z,29.00
2022-11-23T12:34:16.913Z,26.63
2022-11-23T12:37:09.121Z,15.53
2022-11-23T12:40:01.331Z,8.17
2022-11-23T12:42:39.483Z,9.57
2022-11-23T12:45:27.404Z,10.10
2022-11-23T12:48:03.926Z,9.93
2022-11-23T12:50:38.687Z,10.30
2022-11-23T12:53:26.501Z,8.80
2022-11-23T12:56:04.272Z,9.23
2022-11-23T12:58:34.671Z,23.37
2022-11-23T13:01:08.147Z,8.80
2022-11-23T13:04:08.762Z,9.27
2022-11-23T13:07:27.402Z,10.37
2022-11-23T13:10:06.588Z,31.93
2022-11-23T13:12:57.112Z,17.60
2022-11-23T13:15:41.854Z,8.03
2022-11-23T13:18:20.518Z,76.27
2022-11-23T13:21:03.933Z,52.40
2022-11-23T13:23:36.290Z,18.03
2022-11-23T13:26:18.673Z,11.10
2022-11-23T13:28:48.639Z,9.63
2022-11-23T13:31:31.145Z,8.67
2022-11-23T13:34:02.304Z,7.97
2022-11-23T13:37:11.224Z,8.47
2022-11-23T13:40:00.333Z,8.37
2022-11-23T13:42:30.824Z,8.17
2022-11-23T13:45:31.063Z,8.13
2022-11-23T13:48:41.299Z,7.97
2022-11-23T13:51:05.939Z,7.73
2022-11-23T13:53:35.997Z,8.33
2022-11-23T13:56:23.750Z,7.37
2022-11-23T13:58:53.946Z,8.13
2022-11-23T14:02:03.098Z,8.10
2022-11-23T14:04:32.615Z,8.23
2022-11-23T14:07:06.816Z,8.40
2022-11-23T14:09:37.551Z,9.03
2022-11-23T14:12:15.420Z,8.70
2022-11-23T14:14:50.793Z,8.07
2022-11-23T14:17:54.823Z,8.50
2022-11-23T14:20:52.975Z,8.03
2022-11-23T14:23:43.279Z,9.07
2022-11-23T14:26:22.441Z,8.10
2022-11-23T14:29:11.043Z,9.33
2022-11-23T14:31:47.302Z,9.17
2022-11-23T14:34:25.039Z,9.33
2022-11-23T14:36:59.039Z,9.03
2022-11-23T14:39:49.484Z,8.97
2022-11-23T14:42:20.770Z,8.90
2022-11-23T14:44:49.400Z,10.27
2022-11-23T14:47:26.759Z,9.10
2022-11-23T14:49:54.538Z,9.07
2022-11-23T14:52:24.535Z,10.00
2022-11-23T14:54:55.773Z,9.30
2022-11-23T14:57:27.431Z,10.00
2022-11-23T14:59:58.889Z,10.03
2022-11-23T15:02:34.990Z,10.40
2022-11-23T15:05:08.807Z,10.20
2022-11-23T15:07:45.825Z,12.03
2022-11-23T15:10:29.529Z,12.80
2022-11-23T15:12:57.297Z,11.43
2022-11-23T15:15:27.345Z,11.80
2022-11-23T15:17:56.245Z,11.67
2022-11-23T15:20:27.894Z,10.30
2022-11-23T15:22:55.779Z,11.40
2022-11-23T15:25:25.055Z,11.43
2022-11-23T15:27:52.816Z,11.47
2022-11-23T15:30:22.053Z,11.80
2022-11-23T15:32:57.685Z,12.50
2022-11-23T15:35:30.890Z,15.67
2022-11-23T15:38:00.699Z,15.37
2022-11-23T15:40:33.477Z,14.07
2022-11-23T15:43:01.422Z,13.80
2022-11-23T15:45:41.226Z,13.70
2022-11-23T15:48:27.728Z,13.27
2022-11-23T15:50:57.447Z,12.87
2022-11-23T15:53:27.642Z,11.17
2022-11-23T15:56:01.236Z,11.30
2022-11-23T15:58:29.659Z,10.60
2022-11-23T16:01:06.450Z,11.30
2022-11-23T16:03:41.078Z,10.50
2022-11-23T16:06:26.591Z,10.23
2022-11-23T16:08:54.334Z,10.70
2022-11-23T16:11:32.754Z,10.30
2022-11-23T16:14:18.201Z,10.87
2022-11-23T16:16:47.968Z,10.17
2022-11-23T16:19:28.793Z,9.83
2022-11-23T16:22:02.487Z,12.87
2022-11-23T16:24:32.541Z,11.93
2022-11-23T16:27:02.611Z,13.23
2022-11-23T16:29:35.070Z,13.93
2022-11-23T16:32:06.945Z,15.37
2022-11-23T16:34:35.198Z,18.03
2022-11-23T16:37:04.595Z,16.33
2022-11-23T16:39:32.356Z,15.17
2022-11-23T16:42:00.104Z,13.80
2022-11-23T16:44:30.950Z,15.70
2022-11-23T16:47:31.100Z,16.47
2022-11-23T16:49:59.394Z,14.73
2022-11-23T16:52:27.311Z,16.33
2022-11-23T16:54:55.063Z,23.20
2022-11-23T16:57:30.828Z,17.40
2022-11-23T17:00:03.700Z,14.13
2022-11-23T17:02:31.473Z,13.37
2022-11-23T17:04:59.353Z,14.43
2022-11-23T17:07:27.153Z,17.67
2022-11-23T17:09:56.396Z,17.03
2022-11-23T17:12:24.236Z,15.77
2022-11-23T17:14:52.229Z,15.90
2022-11-23T17:17:23.185Z,13.27
2022-11-23T17:19:51.629Z,13.60
2022-11-23T17:22:20.809Z,14.10
2022-11-23T17:24:49.744Z,14.53
2022-11-23T17:27:20.336Z,14.47
2022-11-23T17:29:48.642Z,15.10
2022-11-23T17:32:16.501Z,13.03
2022-11-23T17:34:45.908Z,13.07
2022-11-23T17:37:19.836Z,13.70
2022-11-23T17:39:47.953Z,13.97
2022-11-23T17:42:16.484Z,14.03
2022-11-23T17:44:44.281Z,12.70
2022-11-23T17:47:20.476Z,13.97
2022-11-23T17:49:49.553Z,14.70
2022-11-23T17:52:17.308Z,14.30
2022-11-23T17:54:45.012Z,15.43
2022-11-23T17:57:15.405Z,15.50
2022-11-23T17:59:43.728Z,14.83
2022-11-23T18:02:11.909Z,13.37
2022-11-23T18:04:39.658Z,13.87
2022-11-23T18:07:11.333Z,15.17
2022-11-23T18:09:39.285Z,14.37
2022-11-23T18:12:07.499Z,15.30
2022-11-23T18:14:35.586Z,12.90
2022-11-23T18:17:03.309Z,15.03
2022-11-23T18:19:31.365Z,13.50
2022-11-23T18:21:59.422Z,12.60
2022-11-23T18:24:28.471Z,13.77
2022-11-23T18:26:56.479Z,14.40
2022-11-23T18:29:24.196Z,16.37
2022-11-23T18:31:51.974Z,16.47
2022-11-23T18:34:19.761Z,17.90
2022-11-23T18:36:47.552Z,16.47
2022-11-23T18:39:15.306Z,15.87
2022-11-23T18:41:44.504Z,15.10
2022-11-23T18:44:12.256Z,15.10
2022-11-23T18:46:41.240Z,15.63
2022-11-23T18:49:09.227Z,14.23
2022-11-23T18:51:36.983Z,15.30
2022-11-23T18:54:05.012Z,14.70
2022-11-23T18:56:32.857Z,14.50
2022-11-23T18:59:02.762Z,15.97
2022-11-23T19:01:30.536Z,16.27
2022-11-23T19:03:58.516Z,14.97
2022-11-23T19:06:26.410Z,15.97
2022-11-23T19:08:57.349Z,16.77
2022-11-23T19:11:27.368Z,15.70
2022-11-23T19:13:56.573Z,16.07
2022-11-23T19:16:27.457Z,14.60
2022-11-23T19:18:55.807Z,14.80
2022-11-23T19:21:26.228Z,15.63
2022-11-23T19:23:55.295Z,15.93
2022-11-23T19:26:23.126Z,16.33
2022-11-23T19:28:52.253Z,16.07
2022-11-23T19:31:22.197Z,16.20
2022-11-23T19:33:52.532Z,13.83
2022-11-23T19:36:22.638Z,13.83
2022-11-23T19:38:50.832Z,16.60
2022-11-23T19:41:23.037Z,14.90
2022-11-23T19:43:54.953Z,14.97
2022-11-23T19:46:23.180Z,15.13
2022-11-23T19:48:52.414Z,15.73
2022-11-23T19:51:21.157Z,16.10
2022-11-23T19:53:49.408Z,15.10
2022-11-23T19:56:19.231Z,16.47
2022-11-23T19:58:47.690Z,15.37
2022-11-23T20:01:16.882Z,15.20
2022-11-23T20:03:46.125Z,14.43
2022-11-23T20:06:17.253Z,15.27
2022-11-23T20:08:46.003Z,15.13
2022-11-23T20:11:15.475Z,14.53
2022-11-23T20:13:44.161Z,14.13
2022-11-23T20:16:14.249Z,14.47
2022-11-23T20:18:42.567Z,16.13
2022-11-23T20:21:12.805Z,15.53
2022-11-23T20:23:42.605Z,16.70
2022-11-23T20:26:14.319Z,14.70
2022-11-23T20:28:42.091Z,14.17
2022-11-23T20:31:19.816Z,14.47
2022-11-23T20:33:50.370Z,14.17
2022-11-23T20:36:20.136Z,15.23
2022-11-23T20:38:49.686Z,14.83
2022-11-23T20:41:19.511Z,16.23
2022-11-23T20:43:49.063Z,17.73
2022-11-23T20:46:32.091Z,16.60
2022-11-23T20:49:05.142Z,16.40
2022-11-23T20:51:33.111Z,16.60
2022-11-23T20:54:02.451Z,17.03
2022-11-23T20:56:30.296Z,15.07
2022-11-23T20:59:00.701Z,16.10
2022-11-23T21:01:29.484Z,17.47
2022-11-23T21:03:59.281Z,17.33
2022-11-23T21:06:28.415Z,18.53
2022-11-23T21:08:56.915Z,18.17
2022-11-23T21:11:45.165Z,16.90
2022-11-23T21:14:17.778Z,17.07
2022-11-23T21:16:52.719Z,19.57
2022-11-23T21:19:21.946Z,19.33
2022-11-23T21:21:50.002Z,22.33
2022-11-23T21:24:17.791Z,23.70
2022-11-23T21:26:47.178Z,27.37
2022-11-23T21:29:16.240Z,25.63
2022-11-23T21:31:45.717Z,21.70
2022-11-23T21:34:18.419Z,23.53
2022-11-23T21:36:46.179Z,21.60
2022-11-23T21:39:14.481Z,24.30
2022-11-23T21:41:42.210Z,24.43
2022-11-23T21:44:12.024Z,24.77
2022-11-23T21:46:41.280Z,26.40
2022-11-23T21:49:09.703Z,23.33
2022-11-23T21:51:39.296Z,43.20
2022-11-23T21:54:09.851Z,25.40
2022-11-23T21:56:37.651Z,22.83
2022-11-23T21:59:05.669Z,28.00
2022-11-23T22:01:37.218Z,25.33
2022-11-23T22:04:08.874Z,23.53
2022-11-23T22:06:37.223Z,24.87
2022-11-23T22:09:07.313Z,27.43
2022-11-23T22:11:36.943Z,24.07
2022-11-23T22:14:07.236Z,26.47
2022-11-23T22:16:38.018Z,24.97
2022-11-23T22:19:06.702Z,25.10
2022-11-23T22:21:36.052Z,22.80
2022-11-23T22:24:04.576Z,23.10
2022-11-23T22:26:32.759Z,24.73
2022-11-23T22:29:02.453Z,25.60
2022-11-23T22:31:33.060Z,24.17
2022-11-23T22:34:03.016Z,24.40
2022-11-23T22:36:31.339Z,24.03
2022-11-23T22:39:02.018Z,25.27
2022-11-23T22:41:30.880Z,23.87
2022-11-23T22:43:59.682Z,25.30
2022-11-23T22:46:27.910Z,26.33
2022-11-23T22:48:59.217Z,24.67
2022-11-23T22:51:29.734Z,24.20
2022-11-23T22:53:59.001Z,25.03
2022-11-23T22:56:28.725Z,24.43
2022-11-23T22:58:56.723Z,27.23
2022-11-23T23:01:26.485Z,25.50
2022-11-23T23:03:55.540Z,22.73
2022-11-23T23:06:25.523Z,24.30
2022-11-23T23:08:56.846Z,24.43
2022-11-23T23:11:25.505Z,22.13
2022-11-23T23:13:53.642Z,25.97
2022-11-23T23:16:21.751Z,23.67
2022-11-23T23:18:49.749Z,26.37
2022-11-23T23:21:19.639Z,24.33
2022-11-23T23:23:48.913Z,24.20
2022-11-23T23:26:19.703Z,22.93
2022-11-23T23:28:47.962Z,21.53
2022-11-23T23:31:17.977Z,22.93
2022-11-23T23:33:46.607Z,22.13
2022-11-23T23:36:16.640Z,21.63
2022-11-23T23:38:44.654Z,22.50
2022-11-23T23:41:13.211Z,22.23
2022-11-23T23:43:43.026Z,21.70
2022-11-23T23:46:13.651Z,22.33
2022-11-23T23:48:42.436Z,21.07
2022-11-23T23:51:12.040Z,19.87
2022-11-23T23:53:40.995Z,21.27
2022-11-23T23:56:13.464Z,21.53
2022-11-23T23:58:42.599Z,23.00
